This is the latest recevied weather packets stored in our database for station/object F4DVI. If no packets are shown the sender has not sent any weather packets the latest 10 day(s).
| Time | Temp. | Humidity | Pressure | Rain* | Wind** | Luminosity | Snow |
|---|---|---|---|---|---|---|---|
| 1777642722 | 26.67° C | 41% | 0 hPa | 0 mm | - | - | - |
| 1777642422 | 25° C | 46% | 0 hPa | 0 mm | - | - | - |
| 1777642122 | 24.44° C | 45% | 0 hPa | 0 mm | - | - | - |
| 1777641822 | 23.89° C | 46% | 0 hPa | 0 mm | - | - | - |
| 1777641522 | 24.44° C | 46% | 0 hPa | 0 mm | - | - | - |
| 1777641222 | 23.89° C | 45% | 0 hPa | 0 mm | - | - | - |
| 1777640922 | 24.44° C | 45% | 0 hPa | 0 mm | - | - | - |
| 1777640622 | 24.44° C | 44% | 0 hPa | 0 mm | - | - | - |
| 1777640322 | 23.89° C | 44% | 0 hPa | 0 mm | - | - | - |
| 1777640022 | 23.33° C | 44% | 0 hPa | 0 mm | - | - | - |
| 1777639722 | 24.44° C | 44% | 0 hPa | 0 mm | - | - | - |
| 1777639422 | 23.89° C | 44% | 0 hPa | 0 mm | - | - | - |
| 1777639122 | 24.44° C | 44% | 0 hPa | 0 mm | - | - | - |
| 1777638822 | 24.44° C | 43% | 0 hPa | 0 mm | - | - | - |
| 1777638522 | 25.56° C | 41% | 0 hPa | 0 mm | - | - | - |
| 1777638222 | 26.11° C | 40% | 0 hPa | 0 mm | - | - | - |
| 1777637922 | 26.67° C | 38% | 0 hPa | 0 mm | - | - | - |
| 1777637622 | 27.78° C | 37% | 0 hPa | 0 mm | - | - | - |
| 1777637322 | 27.22° C | 38% | 0 hPa | 0 mm | - | - | - |
| 1777637022 | 27.78° C | 37% | 0 hPa | 0 mm | - | - | - |
| 1777636722 | 28.33° C | 35% | 0 hPa | 0 mm | - | - | - |
| 1777636422 | 28.89° C | 35% | 0 hPa | 0 mm | - | - | - |
| 1777636122 | 29.44° C | 38% | 0 hPa | 0 mm | - | - | - |
| 1777635822 | 27.78° C | 39% | 0 hPa | 0 mm | - | - | - |
| 1777635522 | 26.67° C | 39% | 0 hPa | 0 mm | - | - | - |
* Rain latest hour (hover to see other rain measurements)
** Current wind speed in m/s (hover to see current wind gust speed)